Time;durP1;ratioP1;P1;durP2;ratioP2;P2;SDS_P1;SDS_P2;PMS_P1;PMS_P2;Temp;Humidity;BMP_temperature;BMP_pressure;BME280_temperature;BME280_humidity;BME280_pressure;Samples;Min_cycle;Max_cycle;Signal;HPM_P1;HPM_P2
2022/10/08 00:00:01;;;;;;;11.50;2.92;;;12.80;99.90;;;;;;5153751;27;20126;-81
2022/10/08 00:02:28;;;;;;;14.77;3.47;;;12.80;99.90;;;;;;5134642;27;20549;-81
2022/10/08 00:04:54;;;;;;;12.40;3.00;;;12.70;99.90;;;;;;5134908;27;20066;-80
2022/10/08 00:07:20;;;;;;;18.60;2.95;;;12.70;99.90;;;;;;5134949;27;20494;-81
2022/10/08 00:09:46;;;;;;;10.02;2.63;;;12.80;99.90;;;;;;5134663;27;20058;-81
2022/10/08 00:12:12;;;;;;;10.68;3.13;;;12.70;99.90;;;;;;5153151;27;20042;-80
2022/10/08 00:14:39;;;;;;;13.68;2.78;;;12.70;99.90;;;;;;5153904;27;20069;-80
2022/10/08 00:17:05;;;;;;;8.13;2.63;;;12.70;99.90;;;;;;5153844;27;20043;-80
2022/10/08 00:19:31;;;;;;;11.85;2.92;;;12.70;99.90;;;;;;5153204;27;20038;-81
2022/10/08 00:21:57;;;;;;;14.63;2.92;;;12.70;99.90;;;;;;5135351;27;20089;-81
2022/10/08 00:24:23;;;;;;;15.20;2.83;;;12.70;99.90;;;;;;5134756;27;20704;-80
2022/10/08 00:26:51;;;;;;;18.45;2.75;;;12.70;99.90;;;;;;5134743;27;20558;-81
2022/10/08 00:29:19;;;;;;;17.90;3.15;;;12.70;99.90;;;;;;5135847;27;20062;-81
2022/10/08 00:31:46;;;;;;;13.73;3.22;;;12.70;99.90;;;;;;5152972;27;20057;-80
2022/10/08 00:34:22;;;;;;;12.20;2.65;;;12.70;99.90;;;;;;5152818;27;20050;-81
2022/10/08 00:36:53;;;;;;;8.80;2.47;;;12.70;99.90;;;;;;5134065;27;20398;-81
2022/10/08 00:39:22;;;;;;;13.35;2.88;;;12.60;99.90;;;;;;5154156;27;20089;-80
2022/10/08 00:41:51;;;;;;;12.98;2.45;;;12.60;99.90;;;;;;5152600;27;20055;-81
2022/10/08 00:44:55;;;;;;;10.48;2.80;;;12.60;99.90;;;;;;5134117;27;20143;-81
2022/10/08 00:47:47;;;;;;;12.50;2.72;;;12.60;99.90;;;;;;5151310;27;20130;-80
2022/10/08 00:50:25;;;;;;;12.48;2.63;;;12.60;99.90;;;;;;5134294;27;20097;-81
2022/10/08 00:52:57;;;;;;;14.82;2.60;;;12.60;99.90;;;;;;5133972;27;20446;-81
2022/10/08 00:55:26;;;;;;;10.25;2.30;;;12.60;99.90;;;;;;5152877;27;20058;-81
2022/10/08 00:57:54;;;;;;;11.00;2.95;;;12.60;99.90;;;;;;5152493;27;20050;-81
2022/10/08 01:00:23;;;;;;;15.90;2.65;;;12.60;99.90;;;;;;5133795;27;20087;-80
2022/10/08 01:02:50;;;;;;;12.43;2.95;;;12.50;99.90;;;;;;5133845;27;20057;-81
2022/10/08 01:05:18;;;;;;;13.25;3.17;;;12.50;99.90;;;;;;5133932;27;20529;-80
2022/10/08 01:07:55;;;;;;;12.10;2.78;;;12.50;99.90;;;;;;5152489;27;20115;-81
2022/10/08 01:10:32;;;;;;;15.52;2.78;;;12.50;99.90;;;;;;5134112;27;20086;-80
2022/10/08 01:13:07;;;;;;;15.75;3.00;;;12.50;99.90;;;;;;5133922;27;20550;-81
2022/10/08 01:15:46;;;;;;;11.38;3.05;;;12.50;99.90;;;;;;5134197;27;20413;-80
2022/10/08 01:18:27;;;;;;;16.88;3.10;;;12.40;99.90;;;;;;5154463;27;20497;-80
2022/10/08 01:21:11;;;;;;;14.50;3.05;;;12.40;99.90;;;;;;5157299;27;20096;-81
2022/10/08 01:23:46;;;;;;;18.45;3.17;;;12.40;99.90;;;;;;5138407;27;20046;-81
2022/10/08 01:26:35;;;;;;;15.10;2.90;;;12.30;99.90;;;;;;5138404;27;20577;-81
2022/10/08 01:29:24;;;;;;;13.88;2.80;;;12.30;99.90;;;;;;5138140;27;20055;-81
2022/10/08 01:31:57;;;;;;;15.80;3.00;;;12.30;99.90;;;;;;5142908;27;20134;-80
2022/10/08 01:34:45;;;;;;;9.60;2.30;;;12.20;99.90;;;;;;5138158;27;20050;-81
2022/10/08 01:37:20;;;;;;;17.80;4.15;;;12.20;99.90;;;;;;5156515;27;20054;-81
2022/10/08 01:39:51;;;;;;;14.43;3.30;;;12.20;99.90;;;;;;5137504;27;20050;-81
2022/10/08 01:42:22;;;;;;;15.90;2.97;;;12.20;99.90;;;;;;5156326;27;20050;-81
2022/10/08 01:44:54;;;;;;;16.17;3.40;;;12.20;99.90;;;;;;5137695;27;20136;-81
2022/10/08 01:47:26;;;;;;;12.30;3.58;;;12.10;99.90;;;;;;5156294;27;20046;-81
2022/10/08 01:50:21;;;;;;;15.77;3.28;;;12.10;99.90;;;;;;5121055;27;20450;-81
2022/10/08 01:52:53;;;;;;;14.65;2.70;;;12.10;99.90;;;;;;5133821;27;20126;-81
2022/10/08 01:55:34;;;;;;;12.00;3.13;;;12.10;99.90;;;;;;5155025;27;20082;-81
2022/10/08 01:58:06;;;;;;;12.38;2.60;;;12.00;99.90;;;;;;5138551;27;20133;-81
2022/10/08 02:00:34;;;;;;;18.73;3.38;;;12.00;99.90;;;;;;5137374;27;20093;-81
2022/10/08 02:03:00;;;;;;;10.25;2.50;;;11.90;99.90;;;;;;5137584;27;20051;-81
2022/10/08 02:05:31;;;;;;;21.38;3.40;;;11.90;99.90;;;;;;5137052;27;20059;-81
2022/10/08 02:07:57;;;;;;;13.93;2.97;;;11.90;99.90;;;;;;5137265;27;20129;-81
2022/10/08 02:10:25;;;;;;;11.10;2.55;;;11.80;99.90;;;;;;5155729;27;20046;-81
2022/10/08 02:12:51;;;;;;;17.98;3.60;;;11.80;99.90;;;;;;5155721;27;20043;-81
2022/10/08 02:15:21;;;;;;;18.95;3.10;;;11.70;99.90;;;;;;5120195;27;20498;-80
2022/10/08 02:17:49;;;;;;;18.65;2.88;;;11.70;99.90;;;;;;5136899;27;20418;-81
2022/10/08 02:20:36;;;;;;;10.70;3.22;;;11.70;99.90;;;;;;5155985;27;20069;-81
2022/10/08 02:23:43;;;;;;;11.63;2.70;;;11.70;99.90;;;;;;5155527;27;20057;-81
2022/10/08 02:26:23;;;;;;;13.60;2.65;;;11.70;99.90;;;;;;5136647;27;20050;-81
2022/10/08 02:28:57;;;;;;;21.05;4.38;;;11.70;99.90;;;;;;5137436;27;20500;-81
2022/10/08 02:31:50;;;;;;;11.75;2.70;;;11.60;99.90;;;;;;5155614;27;20262;-81
2022/10/08 02:34:24;;;;;;;17.42;2.80;;;11.60;99.90;;;;;;5155790;27;20409;-81
2022/10/08 02:37:08;;;;;;;13.10;2.70;;;11.50;99.90;;;;;;5136223;27;20050;-81
2022/10/08 02:39:37;;;;;;;17.10;2.83;;;11.50;99.90;;;;;;5136553;27;20081;-81
2022/10/08 02:42:09;;;;;;;12.73;2.92;;;11.50;99.90;;;;;;5155069;27;20053;-81
2022/10/08 02:44:58;;;;;;;16.35;2.78;;;11.40;99.90;;;;;;5155537;27;20429;-81
2022/10/08 02:47:28;;;;;;;20.40;3.05;;;11.40;99.90;;;;;;5136941;27;20062;-81
2022/10/08 02:50:01;;;;;;;14.80;2.90;;;11.40;99.90;;;;;;5156512;27;20084;-81
2022/10/08 02:52:34;;;;;;;17.20;3.95;;;11.30;99.90;;;;;;5137317;27;20050;-81
2022/10/08 02:55:01;;;;;;;13.68;3.10;;;11.30;99.90;;;;;;5139250;27;20432;-81
2022/10/08 02:57:37;;;;;;;15.20;2.63;;;11.30;99.90;;;;;;5139519;27;20050;-81
2022/10/08 03:00:04;;;;;;;17.08;2.75;;;11.30;99.90;;;;;;5158462;27;20062;-81
2022/10/08 03:02:38;;;;;;;17.27;2.60;;;11.20;99.90;;;;;;5155175;27;20130;-81
2022/10/08 03:05:11;;;;;;;15.30;2.50;;;11.20;99.90;;;;;;5155146;27;20180;-81
2022/10/08 03:07:37;;;;;;;17.33;3.97;;;11.20;99.90;;;;;;5154717;27;20051;-81
2022/10/08 03:10:06;;;;;;;12.20;2.25;;;11.20;99.90;;;;;;5135798;27;20038;-81
2022/10/08 03:12:33;;;;;;;17.02;2.78;;;11.20;99.90;;;;;;5136077;27;20053;-81
2022/10/08 03:14:59;;;;;;;18.55;2.75;;;11.20;99.90;;;;;;5138224;27;20054;-81
2022/10/08 03:17:34;;;;;;;17.73;4.03;;;11.10;99.90;;;;;;5136777;27;20086;-81
2022/10/08 03:20:08;;;;;;;19.08;3.80;;;11.20;99.90;;;;;;5135969;27;20061;-81
2022/10/08 03:22:34;;;;;;;;;;;11.20;99.90;;;;;;5136378;27;20054;-81
2022/10/08 03:25:00;;;;;;;23.90;3.10;;;11.20;99.90;;;;;;5136131;27;19919;-81
2022/10/08 03:27:26;;;;;;;15.10;2.63;;;11.20;99.90;;;;;;5136063;27;20398;-81
2022/10/08 03:29:56;;;;;;;11.90;2.53;;;11.30;99.90;;;;;;5135996;27;20058;-81
2022/10/08 03:32:28;;;;;;;18.27;3.03;;;11.30;99.90;;;;;;5135594;27;20107;-81
2022/10/08 03:34:53;;;;;;;17.17;2.88;;;11.20;99.90;;;;;;5135772;27;20861;-81
2022/10/08 03:37:20;;;;;;;18.00;3.50;;;11.20;99.90;;;;;;5152418;27;20050;-81
2022/10/08 03:39:45;;;;;;;21.20;3.63;;;11.20;99.90;;;;;;5154082;27;20050;-81
2022/10/08 03:42:12;;;;;;;13.00;4.20;;;11.10;99.90;;;;;;5153388;27;20046;-81
2022/10/08 03:44:38;;;;;;;17.48;3.17;;;11.10;99.90;;;;;;5154012;27;20154;-81
2022/10/08 03:47:04;;;;;;;14.95;3.00;;;11.00;99.90;;;;;;5118054;27;20098;-82
2022/10/08 03:49:29;;;;;;;22.48;3.17;;;11.00;99.90;;;;;;5135715;27;20058;-81
2022/10/08 03:51:55;;;;;;;17.52;2.95;;;11.00;99.90;;;;;;5135031;27;20049;-81
2022/10/08 03:54:21;;;;;;;16.10;3.38;;;10.90;99.90;;;;;;5135184;27;20054;-81
2022/10/08 03:56:47;;;;;;;20.50;3.33;;;10.90;99.90;;;;;;5134986;27;20405;-82
2022/10/08 03:59:13;;;;;;;19.75;2.67;;;10.90;99.90;;;;;;5152549;27;20051;-81
2022/10/08 04:01:39;;;;;;;17.60;3.40;;;10.80;99.90;;;;;;5134754;27;20095;-81
2022/10/08 04:04:05;;;;;;;16.85;3.17;;;10.80;99.90;;;;;;5135217;27;20053;-81
2022/10/08 04:06:30;;;;;;;16.58;2.97;;;10.80;99.90;;;;;;5155022;27;20046;-81
2022/10/08 04:08:59;;;;;;;13.20;3.25;;;10.80;99.90;;;;;;5156301;27;20546;-80
2022/10/08 04:11:27;;;;;;;21.55;2.47;;;10.80;99.90;;;;;;5138191;27;20545;-79
2022/10/08 04:13:52;;;;;;;13.77;2.63;;;10.80;99.90;;;;;;5154988;27;20055;-81
2022/10/08 04:16:18;;;;;;;18.02;3.25;;;10.70;99.90;;;;;;5136033;27;20401;-81
2022/10/08 04:18:45;;;;;;;15.32;2.80;;;10.70;99.90;;;;;;5154185;27;20506;-81
2022/10/08 04:21:14;;;;;;;17.02;2.50;;;10.70;99.90;;;;;;5137072;27;20158;-81
2022/10/08 04:23:41;;;;;;;18.55;2.95;;;10.70;99.90;;;;;;5135400;27;20046;-82
2022/10/08 04:26:08;;;;;;;14.48;2.70;;;10.70;99.90;;;;;;5134872;27;20057;-80
2022/10/08 04:28:36;;;;;;;23.88;3.10;;;10.70;99.90;;;;;;5153418;27;20054;-82
2022/10/08 04:31:09;;;;;;;15.43;3.03;;;10.70;99.90;;;;;;5134287;27;20047;-79
2022/10/08 04:33:35;;;;;;;12.93;2.70;;;10.70;99.90;;;;;;5134665;27;20066;-83
2022/10/08 04:36:16;;;;;;;14.93;2.60;;;10.70;99.90;;;;;;5153139;27;20047;-82
2022/10/08 04:38:43;;;;;;;18.95;2.92;;;10.70;99.90;;;;;;5131008;27;20054;-82
2022/10/08 04:41:11;;;;;;;17.30;2.83;;;10.60;99.90;;;;;;5132376;27;20036;-82
2022/10/08 04:43:38;;;;;;;19.33;2.65;;;10.60;99.90;;;;;;5113398;28;20062;-80
2022/10/08 04:46:07;;;;;;;14.88;2.70;;;10.60;99.90;;;;;;5131931;27;20050;-80
2022/10/08 04:48:36;;;;;;;14.77;2.65;;;10.50;99.90;;;;;;5132064;27;20077;-82
2022/10/08 04:51:04;;;;;;;18.05;3.83;;;10.50;99.90;;;;;;5132128;27;20428;-81
2022/10/08 04:53:30;;;;;;;20.40;2.88;;;10.40;99.90;;;;;;5147509;27;20055;-80
2022/10/08 04:55:56;;;;;;;16.25;3.00;;;10.40;99.90;;;;;;5130668;27;20039;-80
2022/10/08 04:58:24;;;;;;;14.77;2.55;;;10.40;99.90;;;;;;5131912;27;20087;-80
2022/10/08 05:00:50;;;;;;;22.85;2.80;;;10.40;99.90;;;;;;5130342;27;20123;-80
2022/10/08 05:03:16;;;;;;;14.50;2.60;;;10.30;99.90;;;;;;5132234;27;20078;-81
2022/10/08 05:05:44;;;;;;;18.67;2.97;;;10.30;99.90;;;;;;5132281;27;20450;-80
2022/10/08 05:08:11;;;;;;;16.50;2.53;;;10.40;99.90;;;;;;5132500;27;20065;-80
2022/10/08 05:10:37;;;;;;;19.33;3.40;;;10.40;99.90;;;;;;5131929;27;20128;-80
2022/10/08 05:13:03;;;;;;;24.08;2.80;;;10.40;99.90;;;;;;5131866;27;20062;-80
2022/10/08 05:15:29;;;;;;;18.10;3.22;;;10.40;99.90;;;;;;5131743;27;20563;-80
2022/10/08 05:17:55;;;;;;;15.93;2.63;;;10.40;99.90;;;;;;5130627;28;20063;-79
2022/10/08 05:20:21;;;;;;;21.52;2.80;;;10.40;99.90;;;;;;5131857;27;20082;-80
2022/10/08 05:22:47;;;;;;;25.52;3.35;;;10.30;99.90;;;;;;5130150;28;20039;-79
2022/10/08 05:25:13;;;;;;;10.60;2.30;;;10.30;99.90;;;;;;5130442;28;20051;-80
2022/10/08 05:27:39;;;;;;;16.73;3.30;;;10.30;99.90;;;;;;5130247;28;20047;-80
2022/10/08 05:30:05;;;;;;;17.83;3.78;;;10.30;99.90;;;;;;5131688;27;20043;-80
2022/10/08 05:32:34;;;;;;;22.15;2.97;;;10.30;99.90;;;;;;5130207;28;20063;-80
2022/10/08 05:35:00;;;;;;;15.35;3.10;;;10.30;99.90;;;;;;5131716;27;20039;-80
2022/10/08 05:37:26;;;;;;;13.68;2.33;;;10.30;99.90;;;;;;5130009;28;20066;-80
2022/10/08 05:39:52;;;;;;;12.70;2.22;;;10.30;99.90;;;;;;5131723;27;20410;-80
2022/10/08 05:42:17;;;;;;;18.17;3.80;;;10.30;99.90;;;;;;5131237;28;20544;-80
2022/10/08 05:44:43;;;;;;;20.30;2.75;;;10.30;99.90;;;;;;5130052;28;20155;-80
2022/10/08 05:47:09;;;;;;;14.25;2.35;;;10.30;99.90;;;;;;5130323;28;20047;-80
2022/10/08 05:49:35;;;;;;;17.42;3.08;;;10.30;99.90;;;;;;5131511;28;20467;-80
2022/10/08 05:52:01;;;;;;;20.83;3.95;;;10.30;99.90;;;;;;5131241;27;20048;-80
2022/10/08 05:54:27;;;;;;;17.88;2.78;;;10.20;99.90;;;;;;5130566;28;20057;-80
2022/10/08 05:56:53;;;;;;;17.77;3.78;;;10.30;99.90;;;;;;5131211;27;20402;-80
2022/10/08 05:59:22;;;;;;;15.25;2.92;;;10.20;99.90;;;;;;5131583;27;20065;-80
2022/10/08 06:01:50;;;;;;;19.90;2.75;;;10.20;99.90;;;;;;5131501;27;20047;-80
2022/10/08 06:04:17;;;;;;;21.60;2.58;;;10.20;99.90;;;;;;5132067;27;20086;-80
2022/10/08 06:06:43;;;;;;;15.75;3.28;;;10.30;99.90;;;;;;5151350;27;20063;-79
2022/10/08 06:09:17;;;;;;;21.20;3.35;;;10.30;99.90;;;;;;5134048;27;20057;-79
2022/10/08 06:11:44;;;;;;;12.65;2.80;;;10.40;99.90;;;;;;5135243;27;20057;-79
2022/10/08 06:14:11;;;;;;;18.27;3.70;;;10.50;99.90;;;;;;5134021;27;20486;-80
2022/10/08 06:16:38;;;;;;;12.20;2.30;;;10.60;99.90;;;;;;5135394;27;20051;-79
2022/10/08 06:19:04;;;;;;;13.02;2.85;;;10.70;99.90;;;;;;5133589;27;20086;-79
2022/10/08 06:21:31;;;;;;;15.68;2.85;;;10.70;99.90;;;;;;5134910;27;20092;-80
2022/10/08 06:23:59;;;;;;;10.65;1.90;;;10.70;99.90;;;;;;5134794;27;20402;-82
2022/10/08 06:26:29;;;;;;;9.77;1.98;;;10.80;99.90;;;;;;5150793;27;20089;-79
2022/10/08 06:28:55;;;;;;;9.95;1.67;;;10.80;99.90;;;;;;5134950;27;20095;-81
2022/10/08 06:31:21;;;;;;;10.23;1.65;;;10.80;99.90;;;;;;5134896;27;20080;-79
2022/10/08 06:33:47;;;;;;;10.43;1.52;;;10.80;99.90;;;;;;5133516;27;20491;-80
2022/10/08 06:36:23;;;;;;;7.43;1.15;;;10.90;99.90;;;;;;5135031;27;20054;-81
2022/10/08 06:38:54;;;;;;;7.20;1.40;;;10.90;99.90;;;;;;5155442;27;20061;-82
2022/10/08 06:41:20;;;;;;;7.20;1.83;;;11.00;99.90;;;;;;5153976;27;20046;-81
2022/10/08 06:43:47;;;;;;;14.65;2.30;;;11.10;99.90;;;;;;5136358;27;20047;-82
2022/10/08 06:46:17;;;;;;;23.08;3.53;;;11.20;99.90;;;;;;5155564;27;20121;-82
2022/10/08 06:48:43;;;;;;;10.50;2.10;;;11.30;99.90;;;;;;5137175;27;20490;-80
2022/10/08 06:51:11;;;;;;;11.55;2.22;;;11.40;99.90;;;;;;5136960;27;20066;-82
2022/10/08 06:53:37;;;;;;;11.40;2.10;;;11.50;99.90;;;;;;5155408;27;20490;-82
2022/10/08 06:56:06;;;;;;;14.52;2.05;;;11.50;99.90;;;;;;5155400;27;20058;-78
2022/10/08 06:58:36;;;;;;;15.00;2.20;;;11.60;99.90;;;;;;5146752;27;20054;-79
2022/10/08 07:01:12;;;;;;;7.97;1.85;;;11.60;99.90;;;;;;5136267;27;20053;-79
2022/10/08 07:03:38;;;;;;;13.63;1.92;;;11.60;99.90;;;;;;5154936;27;20521;-79
2022/10/08 07:06:10;;;;;;;11.68;1.70;;;11.50;99.90;;;;;;5136586;27;20114;-80
2022/10/08 07:08:37;;;;;;;12.85;1.73;;;11.50;99.90;;;;;;5137115;27;20047;-80
2022/10/08 07:11:07;;;;;;;9.85;2.10;;;11.50;99.90;;;;;;5154525;27;20058;-79
2022/10/08 07:13:33;;;;;;;7.80;1.13;;;11.40;99.90;;;;;;5154517;27;20050;-80
2022/10/08 07:16:02;;;;;;;7.03;1.50;;;11.30;99.90;;;;;;5153779;27;20100;-79
2022/10/08 07:18:28;;;;;;;6.30;1.30;;;11.30;99.90;;;;;;5154582;27;20632;-80
2022/10/08 07:20:55;;;;;;;8.82;1.58;;;11.30;99.90;;;;;;5154786;27;20054;-80
2022/10/08 07:23:21;;;;;;;9.23;1.55;;;11.30;99.90;;;;;;5154543;27;20076;-81
2022/10/08 07:25:59;;;;;;;15.32;2.05;;;11.50;99.90;;;;;;5154266;27;20428;-80
2022/10/08 07:28:28;;;;;;;7.22;1.33;;;11.60;99.90;;;;;;5118813;27;20057;-80
2022/10/08 07:30:54;;;;;;;10.07;1.92;;;11.80;99.90;;;;;;5154486;27;20046;-80
2022/10/08 07:33:20;;;;;;;9.85;1.55;;;11.90;99.90;;;;;;5135646;27;20072;-80
2022/10/08 07:35:47;;;;;;;5.63;0.95;;;12.10;99.90;;;;;;5135424;27;20047;-80
2022/10/08 07:38:17;;;;;;;7.50;1.40;;;12.20;99.90;;;;;;5118444;27;20150;-81
2022/10/08 07:40:44;;;;;;;9.98;1.58;;;12.10;99.90;;;;;;5154447;27;20057;-80
2022/10/08 07:43:10;;;;;;;12.82;1.60;;;12.10;99.90;;;;;;5154138;27;20053;-81
2022/10/08 07:45:43;;;;;;;8.80;1.20;;;12.10;99.90;;;;;;5135820;27;20051;-80
2022/10/08 07:48:09;;;;;;;10.07;1.40;;;12.20;99.90;;;;;;5136301;27;20096;-81
2022/10/08 07:50:34;;;;;;;10.60;1.70;;;12.20;99.90;;;;;;5154348;27;20463;-81
2022/10/08 07:53:00;;;;;;;5.45;1.58;;;12.30;99.90;;;;;;5154720;27;20111;-81
2022/10/08 07:55:26;;;;;;;8.63;1.25;;;12.40;99.90;;;;;;5154173;27;20363;-81
2022/10/08 07:57:53;;;;;;;12.30;2.15;;;12.30;99.90;;;;;;5135386;27;20093;-81
2022/10/08 08:00:19;;;;;;;16.35;2.25;;;12.10;99.90;;;;;;5134868;27;20103;-78
2022/10/08 08:02:47;;;;;;;6.68;1.35;;;11.90;99.90;;;;;;5135445;27;20058;-78
2022/10/08 08:05:13;;;;;;;5.55;1.67;;;11.70;99.90;;;;;;5153675;27;20076;-79
2022/10/08 08:07:39;;;;;;;4.53;1.15;;;11.50;99.90;;;;;;5153559;27;20440;-78
2022/10/08 08:10:05;;;;;;;7.65;1.17;;;11.40;99.90;;;;;;5153571;27;20050;-79
2022/10/08 08:12:31;;;;;;;9.18;1.48;;;11.30;99.90;;;;;;5134723;27;20483;-79
2022/10/08 08:14:57;;;;;;;7.78;0.98;;;11.40;99.90;;;;;;5153396;27;20057;-80
2022/10/08 08:17:23;;;;;;;12.93;1.50;;;11.50;99.90;;;;;;5152166;27;20047;-80
2022/10/08 08:19:49;;;;;;;10.85;1.75;;;11.60;99.90;;;;;;5134934;27;20058;-80
2022/10/08 08:22:15;;;;;;;12.55;1.65;;;11.70;99.90;;;;;;5153396;27;20054;-80
2022/10/08 08:24:41;;;;;;;10.45;1.40;;;11.90;99.90;;;;;;5134399;27;20046;-80
2022/10/08 08:27:07;;;;;;;16.45;2.25;;;12.00;99.90;;;;;;5134327;27;20517;-80
2022/10/08 08:29:33;;;;;;;14.30;2.83;;;12.20;99.90;;;;;;5134346;27;20058;-81
2022/10/08 08:31:58;;;;;;;15.25;2.13;;;12.40;99.90;;;;;;5153093;27;20066;-81
2022/10/08 08:34:24;;;;;;;12.40;1.75;;;12.50;99.90;;;;;;5134653;27;20062;-80
2022/10/08 08:36:54;;;;;;;13.75;2.13;;;12.60;99.90;;;;;;5153053;27;20047;-80
2022/10/08 08:39:24;;;;;;;14.43;2.05;;;12.70;99.90;;;;;;5153036;27;20051;-81
2022/10/08 08:42:32;;;;;;;10.98;2.28;;;12.90;99.90;;;;;;5134010;27;20188;-80
2022/10/08 08:45:20;;;;;;;14.23;1.52;;;13.10;99.90;;;;;;5152914;27;20074;-80
2022/10/08 08:48:04;;;;;;;7.65;1.60;;;13.00;99.90;;;;;;5117126;27;20070;-80
2022/10/08 08:50:40;;;;;;;9.23;1.50;;;12.90;99.90;;;;;;5152967;27;20127;-81
2022/10/08 08:53:08;;;;;;;8.65;2.25;;;13.10;99.90;;;;;;5153320;27;20039;-81
2022/10/08 08:55:40;;;;;;;11.73;1.73;;;13.20;99.90;;;;;;5134863;27;20502;-80
2022/10/08 08:58:48;;;;;;;18.02;1.95;;;13.40;99.90;;;;;;5138373;27;20047;-80
2022/10/08 09:01:22;;;;;;;10.63;2.20;;;13.60;99.90;;;;;;5135701;27;20051;-80
2022/10/08 09:03:55;;;;;;;14.80;2.50;;;13.70;99.90;;;;;;5117856;27;20047;-80
2022/10/08 09:06:24;;;;;;;10.73;1.70;;;13.50;99.90;;;;;;5135805;27;20101;-80
2022/10/08 09:09:13;;;;;;;9.98;2.03;;;13.40;99.90;;;;;;5154168;27;20074;-80
2022/10/08 09:11:41;;;;;;;11.57;1.52;;;13.30;99.90;;;;;;5155270;27;20046;-80
2022/10/08 09:14:13;;;;;;;13.75;2.00;;;13.20;99.90;;;;;;5137456;27;20054;-80
2022/10/08 09:16:39;;;;;;;9.88;1.75;;;13.10;99.90;;;;;;5133790;27;20086;-80
2022/10/08 09:19:06;;;;;;;8.55;1.70;;;13.30;99.90;;;;;;5116988;27;20458;-80
2022/10/08 09:21:33;;;;;;;15.70;1.83;;;13.40;99.90;;;;;;5152401;27;20051;-80
2022/10/08 09:23:59;;;;;;;12.07;2.17;;;13.60;99.90;;;;;;5133752;27;20062;-81
2022/10/08 09:26:30;;;;;;;12.57;1.73;;;13.70;99.90;;;;;;5133805;27;20053;-81
2022/10/08 09:28:58;;;;;;;23.83;4.82;;;13.90;99.90;;;;;;5151986;27;20838;-80
2022/10/08 09:31:47;;;;;;;10.07;1.98;;;14.00;99.90;;;;;;5116320;27;20141;-80
2022/10/08 09:34:16;;;;;;;17.42;2.50;;;14.20;99.90;;;;;;5152078;27;20524;-80
2022/10/08 09:36:45;;;;;;;13.35;2.22;;;14.30;99.90;;;;;;5133056;27;20050;-80
2022/10/08 09:39:24;;;;;;;8.57;1.55;;;14.20;99.90;;;;;;5135327;27;20054;-81
2022/10/08 09:42:13;;;;;;;7.35;1.60;;;14.30;99.90;;;;;;5156466;27;20099;-80
2022/10/08 09:44:45;;;;;;;14.77;2.53;;;14.30;99.90;;;;;;5156398;27;20042;-81
2022/10/08 09:47:14;;;;;;;11.27;1.70;;;14.40;99.90;;;;;;5156570;27;20472;-81
2022/10/08 09:49:40;;;;;;;11.45;2.13;;;14.50;99.90;;;;;;5137594;27;20082;-81
2022/10/08 09:52:25;;;;;;;11.27;1.95;;;14.60;99.90;;;;;;5120221;27;20119;-81
2022/10/08 09:55:02;;;;;;;12.63;2.20;;;14.70;99.90;;;;;;5120241;27;20050;-81
2022/10/08 09:57:30;;;;;;;12.93;2.20;;;14.80;99.90;;;;;;5120148;27;20046;-81
2022/10/08 10:00:01;;;;;;;14.52;2.28;;;14.90;99.90;;;;;;5136693;27;20055;-81
2022/10/08 10:02:34;;;;;;;15.07;2.00;;;15.00;99.90;;;;;;5155842;27;20050;-81
2022/10/08 10:05:06;;;;;;;13.37;3.00;;;15.10;99.90;;;;;;5156274;27;20047;-80
2022/10/08 10:07:41;;;;;;;9.57;2.10;;;15.20;99.90;;;;;;5155614;27;20838;-81
2022/10/08 10:10:33;;;;;;;9.68;1.55;;;15.30;99.90;;;;;;5155503;27;20506;-80
2022/10/08 10:13:20;;;;;;;14.52;3.25;;;15.50;99.90;;;;;;5137586;27;20078;-80
2022/10/08 10:16:00;;;;;;;14.48;2.75;;;15.70;99.90;;;;;;5155783;27;20065;-80
2022/10/08 10:18:46;;;;;;;15.30;3.38;;;15.80;99.90;;;;;;5155751;27;20054;-80
2022/10/08 10:21:19;;;;;;;14.90;2.22;;;16.10;99.90;;;;;;5155203;27;20179;-80
2022/10/08 10:24:06;;;;;;;7.32;1.98;;;16.40;99.90;;;;;;5136803;27;20086;-79
2022/10/08 10:26:40;;;;;;;15.50;3.25;;;16.10;99.90;;;;;;5155297;27;20072;-80
2022/10/08 10:29:17;;;;;;;13.65;2.35;;;16.00;99.90;;;;;;5155233;27;20079;-80
2022/10/08 10:31:54;;;;;;;9.02;1.38;;;15.90;99.90;;;;;;5136573;27;20111;-81
2022/10/08 10:34:34;;;;;;;7.82;1.60;;;15.00;99.90;;;;;;5119717;27;20050;-81
2022/10/08 10:37:05;;;;;;;8.77;1.58;;;14.40;99.90;;;;;;5136670;27;20147;-81
2022/10/08 10:39:56;;;;;;;7.20;1.42;;;14.00;99.90;;;;;;5155120;27;20130;-80
2022/10/08 10:43:03;;;;;;;9.95;1.35;;;13.50;99.90;;;;;;5119041;27;20096;-80
2022/10/08 10:45:35;;;;;;;11.65;2.58;;;13.20;99.90;;;;;;5136400;27;20054;-80
2022/10/08 10:48:01;;;;;;;20.02;3.08;;;13.10;99.90;;;;;;5155154;27;20039;-80
2022/10/08 10:50:32;;;;;;;14.00;2.35;;;13.20;99.90;;;;;;5134973;27;20514;-80
2022/10/08 10:53:17;;;;;;;7.70;1.70;;;13.60;99.90;;;;;;5154743;27;20780;-80
2022/10/08 10:55:42;;;;;;;14.32;2.47;;;14.10;99.90;;;;;;5155139;27;20069;-80
2022/10/08 10:58:40;;;;;;;12.80;1.95;;;14.50;99.90;;;;;;5136754;27;20557;-80
2022/10/08 11:01:21;;;;;;;10.05;2.63;;;15.10;99.90;;;;;;5136537;27;20046;-80
2022/10/08 11:04:08;;;;;;;15.60;2.75;;;15.50;99.90;;;;;;5155345;27;20039;-80
2022/10/08 11:07:05;;;;;;;14.57;1.88;;;15.50;99.90;;;;;;5136288;27;20053;-80
2022/10/08 11:09:35;;;;;;;13.93;2.60;;;15.40;99.90;;;;;;5136079;27;20043;-80
2022/10/08 11:12:23;;;;;;;18.75;3.60;;;15.20;99.90;;;;;;5136306;27;20045;-81
2022/10/08 11:15:01;;;;;;;15.65;2.33;;;15.50;99.90;;;;;;5155044;27;20050;-81
2022/10/08 11:17:48;;;;;;;9.80;1.98;;;16.10;99.90;;;;;;5154811;27;20057;-80
2022/10/08 11:20:24;;;;;;;9.77;2.13;;;16.70;99.90;;;;;;5136094;27;20102;-80
2022/10/08 11:23:07;;;;;;;8.13;2.20;;;17.60;99.90;;;;;;5154309;27;20053;-79
2022/10/08 11:25:51;;;;;;;14.63;2.25;;;18.20;99.90;;;;;;5135789;27;20130;-80
2022/10/08 11:28:42;;;;;;;8.93;1.65;;;18.60;99.90;;;;;;5154417;27;20062;-80
2022/10/08 11:31:13;;;;;;;8.02;1.70;;;19.00;99.90;;;;;;5154094;27;20077;-80
2022/10/08 11:33:40;;;;;;;11.15;2.30;;;19.50;99.90;;;;;;5135659;27;20061;-80
2022/10/08 11:36:24;;;;;;;11.40;2.28;;;19.50;99.90;;;;;;5135275;27;20424;-80
2022/10/08 11:39:13;;;;;;;11.02;2.58;;;19.60;99.90;;;;;;5154088;27;20043;-80
2022/10/08 11:41:47;;;;;;;21.38;3.47;;;20.80;97.80;;;;;;5153868;27;20644;-80
2022/10/08 11:44:13;;;;;;;13.30;2.42;;;21.20;98.60;;;;;;5152316;27;20062;-80
2022/10/08 11:46:39;;;;;;;11.85;2.13;;;22.00;97.80;;;;;;5153976;27;20050;-80
2022/10/08 11:49:14;;;;;;;18.63;2.47;;;22.50;95.80;;;;;;5153593;27;20153;-80
2022/10/08 11:51:45;;;;;;;8.50;1.95;;;21.60;93.30;;;;;;5153601;27;20111;-81
2022/10/08 11:54:14;;;;;;;9.13;1.83;;;20.30;96.10;;;;;;5135118;27;20053;-82
2022/10/08 11:56:48;;;;;;;11.65;1.52;;;18.90;97.60;;;;;;5153665;27;20126;-82
2022/10/08 11:59:29;;;;;;;8.82;1.25;;;17.60;99.10;;;;;;5153291;27;20307;-81
2022/10/08 12:01:58;;;;;;;9.50;1.67;;;17.90;99.90;;;;;;5134554;27;20091;-80
2022/10/08 12:04:37;;;;;;;8.95;1.85;;;18.70;99.60;;;;;;5134817;27;20058;-82
2022/10/08 12:07:35;;;;;;;9.38;2.00;;;20.00;97.60;;;;;;5153482;27;20054;-81
2022/10/08 12:10:24;;;;;;;7.50;1.23;;;21.30;98.90;;;;;;5091713;27;20062;-82
2022/10/08 12:12:50;;;;;;;7.97;2.08;;;22.80;95.90;;;;;;5134935;27;20055;-81
2022/10/08 12:15:22;;;;;;;6.38;1.55;;;23.70;94.10;;;;;;5153462;27;20050;-81
2022/10/08 12:18:01;;;;;;;8.75;1.90;;;23.20;92.20;;;;;;5134331;27;20057;-82
2022/10/08 12:20:29;;;;;;;11.32;1.75;;;21.90;92.90;;;;;;5133656;27;20050;-81
2022/10/08 12:23:04;;;;;;;8.82;1.92;;;21.60;93.70;;;;;;5134220;27;20042;-80
2022/10/08 12:26:03;;;;;;;9.77;1.98;;;22.20;93.60;;;;;;5153343;27;20047;-82
2022/10/08 12:28:34;;;;;;;8.93;1.85;;;23.10;92.40;;;;;;5152681;27;20047;-80
2022/10/08 12:31:17;;;;;;;10.40;1.67;;;23.70;91.80;;;;;;5153110;27;20114;-82
2022/10/08 12:33:53;;;;;;;10.90;1.67;;;22.20;91.00;;;;;;5153283;27;20047;-80
2022/10/08 12:36:55;;;;;;;10.52;1.75;;;21.70;93.10;;;;;;5153035;27;20059;-81
2022/10/08 12:39:45;;;;;;;15.50;2.13;;;22.00;91.90;;;;;;5104450;27;20095;-80
2022/10/08 12:42:21;;;;;;;11.30;1.70;;;22.70;91.60;;;;;;5152484;27;20107;-80
2022/10/08 12:44:46;;;;;;;9.50;1.67;;;24.00;90.90;;;;;;5153155;27;20699;-82
2022/10/08 12:47:35;;;;;;;8.98;1.50;;;24.70;90.00;;;;;;5134197;27;20054;-79
2022/10/08 12:50:40;;;;;;;12.88;2.22;;;25.20;88.20;;;;;;5120823;27;20076;-80
2022/10/08 12:53:07;;;;;;;10.00;1.55;;;25.10;87.20;;;;;;5152563;27;20204;-82
2022/10/08 12:55:42;;;;;;;9.85;1.95;;;24.70;87.00;;;;;;5133951;27;20051;-78
2022/10/08 12:58:16;;;;;;;7.10;1.23;;;24.00;87.70;;;;;;5134095;27;20050;-81
2022/10/08 13:00:43;;;;;;;11.68;1.80;;;23.10;87.40;;;;;;5116810;27;20043;-80
2022/10/08 13:03:16;;;;;;;7.05;1.50;;;22.20;90.10;;;;;;5153127;27;20053;-80